Time;durP1;ratioP1;P1;durP2;ratioP2;P2;SDS_P1;SDS_P2;PMS_P1;PMS_P2;Temp;Humidity;BMP_temperature;BMP_pressure;BME280_temperature;BME280_humidity;BME280_pressure;Samples;Min_cycle;Max_cycle;Signal;HPM_P1;HPM_P2
2023/07/11 00:01:46;;;;;;;;;5.25;3.25;;;;;;;;5097806;27;46180;-53
2023/07/11 00:04:11;;;;;;;;;5.75;4.00;;;;;;;;5098190;27;45495;-53
2023/07/11 00:06:36;;;;;;;;;2.75;2.75;;;;;;;;5098106;27;45426;-50
2023/07/11 00:09:02;;;;;;;;;5.00;2.00;;;;;;;;5098267;27;45380;-52
2023/07/11 00:11:27;;;;;;;;;5.00;3.00;;;;;;;;5097362;27;46201;-50
2023/07/11 00:13:53;;;;;;;;;5.25;3.75;;;;;;;;5097894;27;45252;-46
2023/07/11 00:16:19;;;;;;;;;5.20;3.20;;;;;;;;5097939;27;45282;-48
2023/07/11 00:18:45;;;;;;;;;5.50;3.75;;;;;;;;5098012;27;45421;-48
2023/07/11 00:21:10;;;;;;;;;3.50;3.50;;;;;;;;5097837;27;45499;-45
2023/07/11 00:23:35;;;;;;;;;7.00;5.50;;;;;;;;5098015;27;45333;-50
2023/07/11 00:26:01;;;;;;;;;4.00;4.00;;;;;;;;5097953;27;45253;-47
2023/07/11 00:28:26;;;;;;;;;3.50;3.00;;;;;;;;5097953;27;45302;-48
2023/07/11 00:30:51;;;;;;;;;5.00;3.50;;;;;;;;5097438;27;45883;-48
2023/07/11 00:33:17;;;;;;;;;4.75;3.00;;;;;;;;5097478;27;45490;-47
2023/07/11 00:35:46;;;;;;;;;3.00;3.00;;;;;;;;5097973;27;45418;-46
2023/07/11 00:38:12;;;;;;;;;5.20;4.80;;;;;;;;5097942;27;45485;-49
2023/07/11 00:40:41;;;;;;;;;5.00;4.00;;;;;;;;5097373;27;47073;-47
2023/07/11 00:43:09;;;;;;;;;3.80;3.80;;;;;;;;5097687;27;45177;-50
2023/07/11 00:45:53;;;;;;;;;5.80;2.80;;;;;;;;5097674;27;45400;-53
2023/07/11 00:48:20;;;;;;;;;5.80;3.60;;;;;;;;5097591;27;45439;-50
2023/07/11 00:50:45;;;;;;;;;3.80;3.80;;;;;;;;5097427;27;46106;-47
2023/07/11 00:53:11;;;;;;;;;5.00;3.75;;;;;;;;5097330;27;45352;-45
2023/07/11 00:55:36;;;;;;;;;4.00;3.00;;;;;;;;5097588;27;45393;-48
2023/07/11 00:58:01;;;;;;;;;4.00;3.00;;;;;;;;5097780;27;45478;-52
2023/07/11 01:00:26;;;;;;;;;3.25;3.25;;;;;;;;5097329;27;46069;-48
2023/07/11 01:02:52;;;;;;;;;3.50;3.25;;;;;;;;5097309;27;45335;-50
2023/07/11 01:05:17;;;;;;;;;3.00;2.50;;;;;;;;5100550;27;45294;-49
2023/07/11 01:07:42;;;;;;;;;4.75;2.75;;;;;;;;5101248;27;45398;-51
2023/07/11 01:10:08;;;;;;;;;4.00;4.00;;;;;;;;5100642;27;45334;-53
2023/07/11 01:12:33;;;;;;;;;6.00;2.25;;;;;;;;5100669;27;45307;-49
2023/07/11 01:14:58;;;;;;;;;3.00;3.00;;;;;;;;5101081;27;45406;-47
2023/07/11 01:17:34;;;;;;;;;4.50;3.25;;;;;;;;5100929;27;45307;-48
2023/07/11 01:20:00;;;;;;;;;6.40;4.80;;;;;;;;5100681;27;46263;-51
2023/07/11 01:22:27;;;;;;;;;3.40;2.40;;;;;;;;5100906;27;45296;-52
2023/07/11 01:24:52;;;;;;;;;5.40;3.00;;;;;;;;5100776;27;45489;-50
2023/07/11 01:27:19;;;;;;;;;4.25;2.00;;;;;;;;5100979;27;45205;-52
2023/07/11 01:29:45;;;;;;;;;4.20;2.60;;;;;;;;5099470;27;45457;-50
2023/07/11 01:32:10;;;;;;;;;2.00;2.00;;;;;;;;5100268;27;45507;-49
2023/07/11 01:34:36;;;;;;;;;1.75;1.75;;;;;;;;5100681;27;45338;-52
2023/07/11 01:37:01;;;;;;;;;2.25;1.50;;;;;;;;5100682;27;45314;-52
2023/07/11 01:39:26;;;;;;;;;4.75;3.50;;;;;;;;5100323;27;45396;-49
2023/07/11 01:41:51;;;;;;;;;1.75;1.75;;;;;;;;5100324;27;45351;-50
2023/07/11 01:44:17;;;;;;;;;3.00;1.50;;;;;;;;5100277;27;45382;-52
2023/07/11 01:46:42;;;;;;;;;5.75;3.75;;;;;;;;5100654;27;45482;-51
2023/07/11 01:49:07;;;;;;;;;7.00;5.00;;;;;;;;5100060;27;45437;-47
2023/07/11 01:51:32;;;;;;;;;3.50;3.50;;;;;;;;5100278;27;45480;-52
2023/07/11 01:53:57;;;;;;;;;1.50;1.50;;;;;;;;5100565;27;45396;-50
2023/07/11 01:56:23;;;;;;;;;5.25;4.00;;;;;;;;5100494;27;45307;-49
2023/07/11 01:58:48;;;;;;;;;5.50;4.50;;;;;;;;5100025;27;45282;-52
2023/07/11 02:01:13;;;;;;;;;6.00;3.50;;;;;;;;5100055;27;45287;-51
2023/07/11 02:03:38;;;;;;;;;5.25;3.50;;;;;;;;5099913;27;45336;-51
2023/07/11 02:06:04;;;;;;;;;3.75;3.75;;;;;;;;5100339;27;45501;-52
2023/07/11 02:08:29;;;;;;;;;4.00;3.25;;;;;;;;5099574;27;46280;-53
2023/07/11 02:10:54;;;;;;;;;4.50;3.50;;;;;;;;5100017;27;45338;-53
2023/07/11 02:13:19;;;;;;;;;6.00;4.00;;;;;;;;5099728;27;45414;-53
2023/07/11 02:15:44;;;;;;;;;7.50;4.75;;;;;;;;5099638;27;45342;-50
2023/07/11 02:18:10;;;;;;;;;4.00;4.00;;;;;;;;5099490;27;46404;-53
2023/07/11 02:20:43;;;;;;;;;7.25;5.00;;;;;;;;5099521;27;45337;-45
2023/07/11 02:23:09;;;;;;;;;5.00;4.40;;;;;;;;5099861;27;45236;-44
2023/07/11 02:25:35;;;;;;;;;3.40;3.40;;;;;;;;5099918;27;45180;-46
2023/07/11 02:28:00;;;;;;;;;4.25;4.00;;;;;;;;5099663;27;45862;-48
2023/07/11 02:30:25;;;;;;;;;5.50;3.25;;;;;;;;5099430;27;45304;-48
2023/07/11 02:32:50;;;;;;;;;4.75;3.50;;;;;;;;5099362;27;45368;-52
2023/07/11 02:35:15;;;;;;;;;5.00;5.00;;;;;;;;5099841;27;45331;-49
2023/07/11 02:37:41;;;;;;;;;5.25;3.75;;;;;;;;5099341;27;46283;-51
2023/07/11 02:40:06;;;;;;;;;7.75;4.75;;;;;;;;5099419;27;45267;-52
2023/07/11 02:42:31;;;;;;;;;4.25;4.25;;;;;;;;5099696;27;45397;-49
2023/07/11 02:44:56;;;;;;;;;7.25;4.50;;;;;;;;5099561;27;45481;-52
2023/07/11 02:47:21;;;;;;;;;6.00;4.25;;;;;;;;5099224;27;45534;-53
2023/07/11 02:49:47;;;;;;;;;4.25;4.25;;;;;;;;5099515;27;45330;-52
2023/07/11 02:52:12;;;;;;;;;4.50;4.00;;;;;;;;5099402;27;45250;-52
2023/07/11 02:54:37;;;;;;;;;5.50;4.00;;;;;;;;5099606;27;45396;-49
2023/07/11 02:57:04;;;;;;;;;4.25;4.00;;;;;;;;5098927;27;46072;-51
2023/07/11 02:59:29;;;;;;;;;4.80;4.80;;;;;;;;5099177;27;45506;-52
2023/07/11 03:01:56;;;;;;;;;5.00;5.00;;;;;;;;5099130;27;45489;-52
2023/07/11 03:04:21;;;;;;;;;5.25;5.00;;;;;;;;5099079;27;45299;-50
2023/07/11 03:06:46;;;;;;;;;7.00;5.75;;;;;;;;5098936;27;46098;-51
2023/07/11 03:09:11;;;;;;;;;7.25;6.00;;;;;;;;5099064;27;45530;-52
2023/07/11 03:11:37;;;;;;;;;5.50;5.50;;;;;;;;5098943;27;45380;-51
2023/07/11 03:14:02;;;;;;;;;8.75;6.00;;;;;;;;5099125;27;45437;-52
2023/07/11 03:16:27;;;;;;;;;8.50;8.50;;;;;;;;5098633;27;46286;-46
2023/07/11 03:18:52;;;;;;;;;8.25;6.50;;;;;;;;5098604;27;45548;-51
2023/07/11 03:21:17;;;;;;;;;6.75;5.25;;;;;;;;5098842;27;45421;-52
2023/07/11 03:23:43;;;;;;;;;8.00;6.50;;;;;;;;5098891;27;45464;-47
2023/07/11 03:26:08;;;;;;;;;5.00;5.00;;;;;;;;5098505;27;46232;-50
2023/07/11 03:28:33;;;;;;;;;5.75;5.75;;;;;;;;5098400;27;45442;-52
2023/07/11 03:30:58;;;;;;;;;6.00;6.00;;;;;;;;5098625;27;45466;-53
2023/07/11 03:33:23;;;;;;;;;5.00;4.75;;;;;;;;5098523;27;45349;-51
2023/07/11 03:35:50;;;;;;;;;4.25;4.25;;;;;;;;5098421;27;46092;-52
2023/07/11 03:38:15;;;;;;;;;6.60;6.60;;;;;;;;5098322;27;45349;-49
2023/07/11 03:40:40;;;;;;;;;7.25;5.25;;;;;;;;5098437;27;45330;-52
2023/07/11 03:43:05;;;;;;;;;5.75;4.00;;;;;;;;5098757;27;45224;-51
2023/07/11 03:45:30;;;;;;;;;8.25;6.50;;;;;;;;5098281;27;46193;-52
2023/07/11 03:47:56;;;;;;;;;9.75;6.75;;;;;;;;5098344;27;45227;-52
2023/07/11 03:50:21;;;;;;;;;6.75;5.00;;;;;;;;5098407;27;45370;-50
2023/07/11 03:52:46;;;;;;;;;7.50;7.00;;;;;;;;5098520;27;45423;-52
2023/07/11 03:55:11;;;;;;;;;6.00;5.50;;;;;;;;5098136;27;46036;-52
2023/07/11 03:57:37;;;;;;;;;5.25;5.25;;;;;;;;5098266;27;45271;-50
2023/07/11 04:00:03;;;;;;;;;6.25;4.50;;;;;;;;5098298;27;45260;-52
2023/07/11 04:02:28;;;;;;;;;7.75;7.00;;;;;;;;5098243;27;45374;-50
2023/07/11 04:04:53;;;;;;;;;10.50;6.00;;;;;;;;5097896;27;46298;-49
2023/07/11 04:07:18;;;;;;;;;6.50;6.00;;;;;;;;5097949;27;45205;-52
2023/07/11 04:09:43;;;;;;;;;6.00;5.25;;;;;;;;5097993;27;45232;-52
2023/07/11 04:12:09;;;;;;;;;5.25;5.00;;;;;;;;5097963;27;45385;-51
2023/07/11 04:14:34;;;;;;;;;7.75;5.25;;;;;;;;5097633;27;47529;-51
2023/07/11 04:17:00;;;;;;;;;6.25;5.75;;;;;;;;5097944;27;45395;-50
2023/07/11 04:19:25;;;;;;;;;7.25;7.00;;;;;;;;5097778;27;45251;-51
2023/07/11 04:21:50;;;;;;;;;7.25;6.25;;;;;;;;5098059;27;45469;-52
2023/07/11 04:24:15;;;;;;;;;8.50;6.00;;;;;;;;5097660;27;47525;-51
2023/07/11 04:26:40;;;;;;;;;5.25;5.25;;;;;;;;5097525;27;45390;-49
2023/07/11 04:29:06;;;;;;;;;8.00;6.25;;;;;;;;5098075;27;45320;-51
2023/07/11 04:31:31;;;;;;;;;5.25;4.25;;;;;;;;5096768;27;45596;-52
2023/07/11 04:33:57;;;;;;;;;6.25;5.00;;;;;;;;5097260;27;46123;-51
2023/07/11 04:36:22;;;;;;;;;5.00;5.00;;;;;;;;5097532;27;45344;-52
2023/07/11 04:38:47;;;;;;;;;5.75;5.00;;;;;;;;5097072;27;45422;-48
2023/07/11 04:41:12;;;;;;;;;8.25;7.00;;;;;;;;5097669;27;45389;-53
2023/07/11 04:43:37;;;;;;;;;6.00;4.25;;;;;;;;5097425;27;46172;-48
2023/07/11 04:46:04;;;;;;;;;7.25;6.00;;;;;;;;5097786;27;45479;-47
2023/07/11 04:48:29;;;;;;;;;6.00;5.00;;;;;;;;5097667;27;45337;-49
2023/07/11 04:50:56;;;;;;;;;6.75;6.75;;;;;;;;5097586;27;45476;-52
2023/07/11 04:53:21;;;;;;;;;6.50;6.50;;;;;;;;5097136;27;45306;-50
2023/07/11 04:55:46;;;;;;;;;8.75;6.25;;;;;;;;5097247;27;45408;-50
2023/07/11 04:58:11;;;;;;;;;6.50;5.00;;;;;;;;5097539;27;45312;-47
2023/07/11 05:00:36;;;;;;;;;8.00;6.25;;;;;;;;5097608;27;45344;-51
2023/07/11 05:03:02;;;;;;;;;11.00;7.00;;;;;;;;5097137;27;46085;-50
2023/07/11 05:05:27;;;;;;;;;6.25;4.00;;;;;;;;5097179;27;45366;-50
2023/07/11 05:07:52;;;;;;;;;6.25;4.75;;;;;;;;5097436;27;45300;-52
2023/07/11 05:10:17;;;;;;;;;7.25;5.75;;;;;;;;5097340;27;45220;-52
2023/07/11 05:12:42;;;;;;;;;8.25;6.00;;;;;;;;5096926;27;45885;-53
2023/07/11 05:15:09;;;;;;;;;6.00;4.75;;;;;;;;5097115;27;45360;-52
2023/07/11 05:17:34;;;;;;;;;9.25;7.00;;;;;;;;5097238;27;45460;-46
2023/07/11 05:19:59;;;;;;;;;10.25;5.75;;;;;;;;5097315;27;45453;-46
2023/07/11 05:22:25;;;;;;;;;7.50;7.00;;;;;;;;5096913;27;46234;-52
2023/07/11 05:24:50;;;;;;;;;6.00;6.00;;;;;;;;5096933;27;45325;-50
2023/07/11 05:27:15;;;;;;;;;9.75;7.00;;;;;;;;5097065;27;45358;-51
2023/07/11 05:29:40;;;;;;;;;10.25;7.50;;;;;;;;5097218;27;45297;-52
2023/07/11 05:32:06;;;;;;;;;9.00;5.75;;;;;;;;5096070;27;45359;-50
2023/07/11 05:34:31;;;;;;;;;9.25;7.00;;;;;;;;5096659;27;45355;-52
2023/07/11 05:36:56;;;;;;;;;8.25;6.50;;;;;;;;5097015;27;45295;-51
2023/07/11 05:39:21;;;;;;;;;6.50;6.50;;;;;;;;5096946;27;45509;-50
2023/07/11 05:41:48;;;;;;;;;9.00;7.75;;;;;;;;5096574;27;46352;-50
2023/07/11 05:44:13;;;;;;;;;6.80;5.80;;;;;;;;5096415;27;45378;-52
2023/07/11 05:46:39;;;;;;;;;5.50;5.00;;;;;;;;5097085;27;45388;-51
2023/07/11 05:49:06;;;;;;;;;9.25;7.00;;;;;;;;5096894;27;45464;-52
2023/07/11 05:51:31;;;;;;;;;6.00;4.75;;;;;;;;5098470;27;45348;-51
2023/07/11 05:53:57;;;;;;;;;7.00;5.00;;;;;;;;5100016;27;45306;-52
2023/07/11 05:56:22;;;;;;;;;6.00;5.00;;;;;;;;5100156;27;45286;-46
2023/07/11 05:58:48;;;;;;;;;4.50;4.50;;;;;;;;5100632;27;45381;-52
2023/07/11 06:01:14;;;;;;;;;6.50;6.50;;;;;;;;5100389;27;46370;-48
2023/07/11 06:03:45;;;;;;;;;7.60;4.60;;;;;;;;5100122;27;45344;-51
2023/07/11 06:06:11;;;;;;;;;5.20;4.00;;;;;;;;5099951;27;45412;-47
2023/07/11 06:08:36;;;;;;;;;7.00;5.00;;;;;;;;5100276;27;45235;-51
2023/07/11 06:11:02;;;;;;;;;6.75;5.00;;;;;;;;5099884;27;46142;-51
2023/07/11 06:13:28;;;;;;;;;4.20;4.20;;;;;;;;5099903;27;45402;-53
2023/07/11 06:15:57;;;;;;;;;4.00;4.00;;;;;;;;5099819;27;45233;-51
2023/07/11 06:18:23;;;;;;;;;6.75;5.00;;;;;;;;5099992;27;45475;-52
2023/07/11 06:20:48;;;;;;;;;3.50;3.50;;;;;;;;5099639;27;45433;-53
2023/07/11 06:23:13;;;;;;;;;6.00;4.00;;;;;;;;5099725;27;45319;-54
2023/07/11 06:25:38;;;;;;;;;3.75;3.75;;;;;;;;5099909;27;45400;-51
2023/07/11 06:28:04;;;;;;;;;4.50;4.00;;;;;;;;5099814;27;45359;-51
2023/07/11 06:30:29;;;;;;;;;4.25;4.25;;;;;;;;5099425;27;46171;-53
2023/07/11 06:32:54;;;;;;;;;7.25;5.25;;;;;;;;5099393;27;45458;-52
2023/07/11 06:35:19;;;;;;;;;6.00;6.00;;;;;;;;5099450;27;45350;-51
2023/07/11 06:37:44;;;;;;;;;4.25;4.00;;;;;;;;5099663;27;45302;-49
2023/07/11 06:40:10;;;;;;;;;5.00;5.00;;;;;;;;5099214;27;45501;-52
2023/07/11 06:42:35;;;;;;;;;6.00;4.00;;;;;;;;5099522;27;45418;-51
2023/07/11 06:45:00;;;;;;;;;7.00;5.00;;;;;;;;5099368;27;45246;-52
2023/07/11 06:47:25;;;;;;;;;5.50;3.50;;;;;;;;5099807;27;45369;-52
2023/07/11 06:49:51;;;;;;;;;5.50;4.50;;;;;;;;5099322;27;46008;-50
2023/07/11 06:52:16;;;;;;;;;5.75;5.75;;;;;;;;5099147;27;45172;-47
2023/07/11 06:54:41;;;;;;;;;5.00;4.75;;;;;;;;5099569;27;45483;-49
2023/07/11 06:57:06;;;;;;;;;3.50;3.50;;;;;;;;5099692;27;45506;-44
2023/07/11 06:59:32;;;;;;;;;3.25;3.25;;;;;;;;5097610;27;46120;-51
2023/07/11 07:01:57;;;;;;;;;6.50;3.75;;;;;;;;5097446;27;45424;-48
2023/07/11 07:04:22;;;;;;;;;5.00;3.00;;;;;;;;5098947;27;45338;-49
2023/07/11 07:06:47;;;;;;;;;5.50;4.50;;;;;;;;5099294;27;45203;-50
2023/07/11 07:09:12;;;;;;;;;4.75;3.25;;;;;;;;5098831;27;45575;-51
2023/07/11 07:11:38;;;;;;;;;4.75;4.00;;;;;;;;5098745;27;45253;-42
2023/07/11 07:14:07;;;;;;;;;6.00;3.00;;;;;;;;5098953;27;45322;-47
2023/07/11 07:16:36;;;;;;;;;3.80;3.80;;;;;;;;5099156;27;45392;-44
2023/07/11 07:19:02;;;;;;;;;6.80;3.40;;;;;;;;5098811;27;46991;-43
2023/07/11 07:21:27;;;;;;;;;3.40;2.60;;;;;;;;5098643;27;45387;-51
2023/07/11 07:23:52;;;;;;;;;2.75;2.75;;;;;;;;5098288;27;45216;-45
2023/07/11 07:26:18;;;;;;;;;2.00;2.00;;;;;;;;5098893;27;45419;-50
2023/07/11 07:28:43;;;;;;;;;3.25;2.00;;;;;;;;5098392;27;47310;-48
2023/07/11 07:31:08;;;;;;;;;2.50;2.50;;;;;;;;5098612;27;45228;-48
2023/07/11 07:33:34;;;;;;;;;4.00;1.00;;;;;;;;5098680;27;45289;-51
2023/07/11 07:36:01;;;;;;;;;3.00;3.00;;;;;;;;5098693;27;45295;-44
2023/07/11 07:38:27;;;;;;;;;4.80;4.80;;;;;;;;5098374;27;46898;-55
2023/07/11 07:40:53;;;;;;;;;4.80;4.20;;;;;;;;5098526;27;45313;-51
2023/07/11 07:43:18;;;;;;;;;3.00;3.00;;;;;;;;5098812;27;45311;-52
2023/07/11 07:45:47;;;;;;;;;3.25;3.25;;;;;;;;5098883;27;45364;-53
2023/07/11 07:48:13;;;;;;;;;2.80;2.80;;;;;;;;5098016;27;45328;-52
2023/07/11 07:50:38;;;;;;;;;6.25;4.75;;;;;;;;5098777;27;45579;-49
2023/07/11 07:53:03;;;;;;;;;3.50;2.25;;;;;;;;5098758;27;45296;-47
2023/07/11 07:55:28;;;;;;;;;2.75;2.50;;;;;;;;5099148;27;45310;-52
2023/07/11 07:57:53;;;;;;;;;3.00;2.75;;;;;;;;5098428;27;46296;-49
2023/07/11 08:00:18;;;;;;;;;4.50;2.75;;;;;;;;5098136;27;45244;-52
2023/07/11 08:02:45;;;;;;;;;5.00;4.25;;;;;;;;5098552;27;45372;-46
2023/07/11 08:05:10;;;;;;;;;4.00;1.60;;;;;;;;5097964;27;45535;-50
2023/07/11 08:07:35;;;;;;;;;5.25;4.00;;;;;;;;5097963;27;46926;-52
2023/07/11 08:10:00;;;;;;;;;4.50;2.50;;;;;;;;5096731;27;45622;-51
2023/07/11 08:12:26;;;;;;;;;3.75;2.00;;;;;;;;5098077;27;45495;-46
2023/07/11 08:14:51;;;;;;;;;4.25;3.00;;;;;;;;5097321;27;45393;-48
2023/07/11 08:17:16;;;;;;;;;4.00;2.50;;;;;;;;5079438;27;46366;-43
2023/07/11 08:19:41;;;;;;;;;7.00;4.00;;;;;;;;5097838;27;45422;-49
2023/07/11 08:22:06;;;;;;;;;5.25;4.00;;;;;;;;5097686;27;45318;-47
2023/07/11 08:24:32;;;;;;;;;3.00;2.75;;;;;;;;5098013;27;45362;-45
2023/07/11 08:26:57;;;;;;;;;3.50;3.50;;;;;;;;5097679;27;46346;-52
2023/07/11 08:29:22;;;;;;;;;3.50;3.00;;;;;;;;5097306;27;45292;-49
2023/07/11 08:31:48;;;;;;;;;3.50;2.25;;;;;;;;5097786;27;45482;-49
2023/07/11 08:34:15;;;;;;;;;2.80;2.00;;;;;;;;5097763;27;45361;-46
2023/07/11 08:36:40;;;;;;;;;4.25;4.25;;;;;;;;5097285;27;47046;-50
2023/07/11 08:39:06;;;;;;;;;5.25;4.00;;;;;;;;5097613;27;45331;-50
2023/07/11 08:41:39;;;;;;;;;4.50;2.75;;;;;;;;5097567;27;45257;-48
2023/07/11 08:44:07;;;;;;;;;5.20;2.60;;;;;;;;5096819;27;45295;-51
2023/07/11 08:46:37;;;;;;;;;4.00;4.00;;;;;;;;5094527;27;46211;-50
2023/07/11 08:49:04;;;;;;;;;6.60;4.00;;;;;;;;5093946;27;46586;-51
2023/07/11 08:51:36;;;;;;;;;3.80;2.00;;;;;;;;5094342;27;45383;-48
2023/07/11 08:54:02;;;;;;;;;2.60;1.60;;;;;;;;5094640;27;45810;-51
2023/07/11 08:56:36;;;;;;;;;2.75;1.75;;;;;;;;5093922;27;45503;-47
2023/07/11 08:59:03;;;;;;;;;5.00;2.60;;;;;;;;5094174;27;45529;-52
2023/07/11 09:01:34;;;;;;;;;2.20;2.20;;;;;;;;5094435;27;45568;-51
2023/07/11 09:04:00;;;;;;;;;5.40;4.00;;;;;;;;5094303;27;45526;-45
2023/07/11 09:06:30;;;;;;;;;6.20;3.60;;;;;;;;5093858;27;47037;-43
2023/07/11 09:08:55;;;;;;;;;3.00;3.00;;;;;;;;5094013;27;45405;-51
2023/07/11 09:11:29;;;;;;;;;3.75;3.75;;;;;;;;5094006;27;45536;-51
2023/07/11 09:13:57;;;;;;;;;3.40;3.40;;;;;;;;5094295;27;45805;-51
2023/07/11 09:16:31;;;;;;;;;5.20;3.60;;;;;;;;5093829;27;45452;-50
2023/07/11 09:19:15;;;;;;;;;3.40;2.80;;;;;;;;5094663;27;45463;-51
2023/07/11 09:21:52;;;;;;;;;3.60;3.60;;;;;;;;5096983;27;45397;-49
2023/07/11 09:24:30;;;;;;;;;5.80;3.00;;;;;;;;5095575;27;45491;-46
2023/07/11 09:26:57;;;;;;;;;4.20;4.20;;;;;;;;5100585;27;46198;-49
2023/07/11 09:29:22;;;;;;;;;4.20;3.20;;;;;;;;5098830;27;45372;-44
2023/07/11 09:31:55;;;;;;;;;4.00;3.00;;;;;;;;5100410;27;45506;-53
2023/07/11 09:34:26;;;;;;;;;3.20;2.20;;;;;;;;5100764;27;45388;-49
2023/07/11 09:36:52;;;;;;;;;3.80;3.00;;;;;;;;5100215;27;45405;-49
2023/07/11 09:39:43;;;;;;;;;2.60;2.60;;;;;;;;5100284;27;45347;-46
2023/07/11 09:42:11;;;;;;;;;3.80;3.20;;;;;;;;5083825;27;45482;-51
2023/07/11 09:44:37;;;;;;;;;3.40;3.40;;;;;;;;5100617;27;45320;-49
2023/07/11 09:47:16;;;;;;;;;5.50;3.00;;;;;;;;5100013;27;46293;-46
2023/07/11 09:49:42;;;;;;;;;7.00;6.20;;;;;;;;5100173;27;45461;-47
2023/07/11 09:52:09;;;;;;;;;6.25;3.50;;;;;;;;5100328;27;45756;-49
2023/07/11 09:54:45;;;;;;;;;3.00;2.00;;;;;;;;5100210;27;45327;-45
2023/07/11 09:57:11;;;;;;;;;3.00;3.00;;;;;;;;5099853;27;46128;-49
2023/07/11 09:59:36;;;;;;;;;6.00;4.75;;;;;;;;5100067;27;45367;-50
2023/07/11 10:02:03;;;;;;;;;4.00;3.00;;;;;;;;5100098;27;45456;-49
2023/07/11 10:04:28;;;;;;;;;7.00;4.00;;;;;;;;5100042;27;45381;-45
2023/07/11 10:06:58;;;;;;;;;2.00;2.00;;;;;;;;5098389;27;46324;-46
2023/07/11 10:09:27;;;;;;;;;3.00;3.00;;;;;;;;5099765;27;45254;-51
2023/07/11 10:11:54;;;;;;;;;8.60;6.40;;;;;;;;5099968;27;45357;-51
2023/07/11 10:14:20;;;;;;;;;6.40;4.20;;;;;;;;5100393;27;45251;-51
2023/07/11 10:16:47;;;;;;;;;2.80;2.20;;;;;;;;5099570;27;46326;-52
2023/07/11 10:19:16;;;;;;;;;3.00;3.00;;;;;;;;5099802;27;45715;-51
2023/07/11 10:21:43;;;;;;;;;4.40;3.00;;;;;;;;5099825;27;45311;-49
2023/07/11 10:24:14;;;;;;;;;3.00;3.00;;;;;;;;5099514;27;45430;-51
2023/07/11 10:26:39;;;;;;;;;5.80;4.00;;;;;;;;5099782;27;45416;-51
2023/07/11 10:29:10;;;;;;;;;2.00;2.00;;;;;;;;5099553;27;45390;-48
2023/07/11 10:31:39;;;;;;;;;4.00;4.00;;;;;;;;5099668;27;45927;-51
2023/07/11 10:34:15;;;;;;;;;8.60;5.40;;;;;;;;5099965;27;45400;-44
2023/07/11 10:36:46;;;;;;;;;5.40;3.60;;;;;;;;5098678;27;47016;-51
2023/07/11 10:39:15;;;;;;;;;3.60;2.80;;;;;;;;5099567;27;45431;-51
2023/07/11 10:41:46;;;;;;;;;7.00;5.00;;;;;;;;5099719;27;45268;-50
2023/07/11 10:44:21;;;;;;;;;6.20;6.20;;;;;;;;5100021;27;45357;-51
2023/07/11 10:46:51;;;;;;;;;8.60;6.20;;;;;;;;5099355;27;46411;-51
2023/07/11 10:49:18;;;;;;;;;2.40;2.40;;;;;;;;5099493;27;45524;-53
2023/07/11 10:51:51;;;;;;;;;7.00;6.00;;;;;;;;5099488;27;45481;-52
2023/07/11 10:54:22;;;;;;;;;3.40;3.40;;;;;;;;5099523;27;45439;-53
2023/07/11 10:56:50;;;;;;;;;3.00;3.00;;;;;;;;5099208;27;46286;-52
2023/07/11 10:59:18;;;;;;;;;5.20;3.80;;;;;;;;5099265;27;45286;-49
2023/07/11 11:01:43;;;;;;;;;2.80;2.20;;;;;;;;5099160;27;45199;-51
2023/07/11 11:04:27;;;;;;;;;4.50;3.00;;;;;;;;5099724;27;45239;-51
2023/07/11 11:07:04;;;;;;;;;3.40;3.40;;;;;;;;5098867;27;46297;-53
2023/07/11 11:09:40;;;;;;;;;4.60;3.80;;;;;;;;5099103;27;45332;-52
2023/07/11 11:12:15;;;;;;;;;4.00;3.60;;;;;;;;5099420;27;45230;-51
2023/07/11 11:14:47;;;;;;;;;5.60;5.00;;;;;;;;5098928;27;45489;-50
2023/07/11 11:17:21;;;;;;;;;4.80;4.80;;;;;;;;5099024;27;46245;-50
2023/07/11 11:19:46;;;;;;;;;5.20;3.80;;;;;;;;5099063;27;45341;-44
2023/07/11 11:22:44;;;;;;;;;4.00;4.00;;;;;;;;5099262;27;45270;-49
2023/07/11 11:25:32;;;;;;;;;7.80;5.60;;;;;;;;5056013;28;45451;-47
2023/07/11 11:27:57;;;;;;;;;3.00;3.00;;;;;;;;5044885;28;46523;-48
2023/07/11 11:30:25;;;;;;;;;5.25;3.25;;;;;;;;5055737;28;45442;-46
2023/07/11 11:32:56;;;;;;;;;8.40;5.00;;;;;;;;5056007;28;45359;-50
2023/07/11 11:35:33;;;;;;;;;4.00;4.00;;;;;;;;5055844;28;45441;-47
2023/07/11 11:38:00;;;;;;;;;3.60;3.60;;;;;;;;5055489;28;46395;-47
2023/07/11 11:40:28;;;;;;;;;4.60;3.20;;;;;;;;5055600;28;45363;-50
2023/07/11 11:42:59;;;;;;;;;5.00;4.40;;;;;;;;5055729;28;45275;-50
2023/07/11 11:45:25;;;;;;;;;6.40;5.00;;;;;;;;5055715;28;45333;-49
2023/07/11 11:47:51;;;;;;;;;4.50;3.75;;;;;;;;5054593;28;46193;-47
2023/07/11 11:50:18;;;;;;;;;7.60;4.20;;;;;;;;5054912;28;45443;-49
2023/07/11 11:52:46;;;;;;;;;4.00;4.00;;;;;;;;5055602;28;45477;-47
2023/07/11 11:55:30;;;;;;;;;3.40;3.00;;;;;;;;5055796;28;45428;-48
2023/07/11 11:57:55;;;;;;;;;3.00;2.40;;;;;;;;5055225;28;46394;-51
2023/07/11 12:00:29;;;;;;;;;5.00;5.00;;;;;;;;5069513;27;45429;-51
2023/07/11 12:02:55;;;;;;;;;10.60;6.20;;;;;;;;5098559;27;45266;-51
2023/07/11 12:05:21;;;;;;;;;3.00;3.00;;;;;;;;5098570;27;45395;-48
2023/07/11 12:08:06;;;;;;;;;3.00;2.00;;;;;;;;5098137;27;45473;-51
2023/07/11 12:10:32;;;;;;;;;4.60;3.00;;;;;;;;5097854;27;45344;-45
2023/07/11 12:13:17;;;;;;;;;5.25;5.25;;;;;;;;5098243;27;45396;-50
2023/07/11 12:15:45;;;;;;;;;3.80;3.20;;;;;;;;5097071;27;45328;-50
2023/07/11 12:18:25;;;;;;;;;3.60;3.60;;;;;;;;5097976;27;46189;-47
2023/07/11 12:21:14;;;;;;;;;6.60;4.20;;;;;;;;5097624;27;45401;-50
2023/07/11 12:23:47;;;;;;;;;3.60;2.80;;;;;;;;5054920;28;45445;-48
2023/07/11 12:26:19;;;;;;;;;2.00;2.00;;;;;;;;5055365;28;45467;-47
2023/07/11 12:28:46;;;;;;;;;3.80;1.80;;;;;;;;5055001;28;46153;-48
2023/07/11 12:31:29;;;;;;;;;6.00;4.60;;;;;;;;5054009;28;45318;-50
2023/07/11 12:33:54;;;;;;;;;4.00;2.60;;;;;;;;5054786;28;45355;-47
2023/07/11 12:36:37;;;;;;;;;3.75;2.25;;;;;;;;5055450;28;45455;-48
2023/07/11 12:39:05;;;;;;;;;5.20;3.80;;;;;;;;5054475;28;46238;-47
2023/07/11 12:41:30;;;;;;;;;3.00;3.00;;;;;;;;5054683;28;45316;-51
2023/07/11 12:43:55;;;;;;;;;2.25;1.75;;;;;;;;5054899;28;45607;-49
2023/07/11 12:46:37;;;;;;;;;2.00;2.00;;;;;;;;5055101;28;45265;-46
2023/07/11 12:49:04;;;;;;;;;2.80;2.80;;;;;;;;5054683;28;46039;-51
2023/07/11 12:51:34;;;;;;;;;3.40;3.40;;;;;;;;5054660;28;45338;-48
2023/07/11 12:54:10;;;;;;;;;3.80;2.00;;;;;;;;5054772;28;45482;-52
2023/07/11 12:56:40;;;;;;;;;1.00;1.00;;;;;;;;5055068;28;45409;-43
2023/07/11 12:59:05;;;;;;;;;1.60;1.60;;;;;;;;5054365;28;45411;-46
2023/07/11 13:01:31;;;;;;;;;3.00;3.00;;;;;;;;5094783;27;45337;-46
2023/07/11 13:03:56;;;;;;;;;3.50;3.50;;;;;;;;5101327;27;45508;-44
2023/07/11 13:06:23;;;;;;;;;3.00;3.00;;;;;;;;5101439;27;45389;-48
2023/07/11 13:08:49;;;;;;;;;1.20;1.20;;;;;;;;5100853;27;45370;-53
2023/07/11 13:11:18;;;;;;;;;3.75;3.25;;;;;;;;5100492;27;45524;-49
2023/07/11 13:13:43;;;;;;;;;2.80;2.80;;;;;;;;5101128;27;45308;-49
2023/07/11 13:16:10;;;;;;;;;7.50;3.50;;;;;;;;5101204;27;45367;-50
2023/07/11 13:18:39;;;;;;;;;4.80;4.00;;;;;;;;5100913;27;45480;-50
2023/07/11 13:21:06;;;;;;;;;2.80;2.20;;;;;;;;5101160;27;45343;-52
2023/07/11 13:23:33;;;;;;;;;7.80;3.80;;;;;;;;5101043;27;45353;-50
2023/07/11 13:25:58;;;;;;;;;4.40;3.80;;;;;;;;5100988;27;45417;-46
2023/07/11 13:28:24;;;;;;;;;3.00;3.00;;;;;;;;5100725;27;45858;-51
2023/07/11 13:31:01;;;;;;;;;3.00;3.00;;;;;;;;5100450;27;45388;-45
2023/07/11 13:33:37;;;;;;;;;4.00;4.00;;;;;;;;5100762;27;45223;-48
2023/07/11 13:36:04;;;;;;;;;3.00;2.00;;;;;;;;5101031;27;45544;-45
2023/07/11 13:38:48;;;;;;;;;5.00;3.20;;;;;;;;5100364;27;46249;-45
2023/07/11 13:41:15;;;;;;;;;3.00;3.00;;;;;;;;5098965;27;45433;-51
2023/07/11 13:43:41;;;;;;;;;3.00;3.00;;;;;;;;5100793;27;45305;-48
2023/07/11 13:46:06;;;;;;;;;5.00;3.80;;;;;;;;5100679;27;45564;-50
2023/07/11 13:48:33;;;;;;;;;2.25;2.25;;;;;;;;5100399;27;45923;-45
2023/07/11 13:51:05;;;;;;;;;3.60;2.40;;;;;;;;5100641;27;45321;-45
2023/07/11 13:53:31;;;;;;;;;4.00;4.00;;;;;;;;5100396;27;45451;-47
2023/07/11 13:55:56;;;;;;;;;2.40;2.40;;;;;;;;5100634;27;45354;-50
2023/07/11 13:58:21;;;;;;;;;6.00;3.75;;;;;;;;5100220;27;45391;-50
2023/07/11 14:00:51;;;;;;;;;4.25;3.75;;;;;;;;5100311;27;45281;-51
2023/07/11 14:03:17;;;;;;;;;2.80;2.80;;;;;;;;5100322;27;45213;-48
2023/07/11 14:05:45;;;;;;;;;2.80;2.80;;;;;;;;5100325;27;45404;-43
2023/07/11 14:08:11;;;;;;;;;5.60;3.60;;;;;;;;5099789;27;47280;-45
2023/07/11 14:10:36;;;;;;;;;3.00;3.00;;;;;;;;5099694;27;45317;-43
2023/07/11 14:13:01;;;;;;;;;4.50;3.00;;;;;;;;5099154;27;45447;-46
2023/07/11 14:15:27;;;;;;;;;4.50;4.50;;;;;;;;5100283;27;45319;-49
2023/07/11 14:17:53;;;;;;;;;6.00;4.80;;;;;;;;5099935;27;46214;-49
2023/07/11 14:20:20;;;;;;;;;2.40;2.20;;;;;;;;5099869;27;45427;-46
2023/07/11 14:22:46;;;;;;;;;4.00;4.00;;;;;;;;5099971;27;45463;-47
2023/07/11 14:25:12;;;;;;;;;9.80;6.20;;;;;;;;5099954;27;45377;-47
2023/07/11 14:27:38;;;;;;;;;6.00;3.80;;;;;;;;5099665;27;46273;-46
2023/07/11 14:30:03;;;;;;;;;5.00;5.00;;;;;;;;5099748;27;45313;-45
2023/07/11 14:32:28;;;;;;;;;6.00;4.50;;;;;;;;5099565;27;45447;-47
2023/07/11 14:34:53;;;;;;;;;3.00;3.00;;;;;;;;5099928;27;45484;-49
2023/07/11 14:37:19;;;;;;;;;4.00;4.00;;;;;;;;5099440;27;46193;-42
2023/07/11 14:39:45;;;;;;;;;3.50;3.50;;;;;;;;5099581;27;45305;-45
2023/07/11 14:42:16;;;;;;;;;7.40;7.20;;;;;;;;5099706;27;45483;-43
2023/07/11 14:44:41;;;;;;;;;3.00;3.00;;;;;;;;5099840;27;45186;-47